sensor_id;sensor_type;location;lat;lon;timestamp;P1;durP1;ratioP1;P2;durP2;ratioP2
8574;SDS011;4325;42.520;27.448;2023-02-08T00:01:32;16.93;;;10.93;;
8574;SDS011;4325;42.520;27.448;2023-02-08T00:03:59;20.03;;;11.13;;
8574;SDS011;4325;42.520;27.448;2023-02-08T00:06:26;17.63;;;11.00;;
8574;SDS011;4325;42.520;27.448;2023-02-08T00:08:53;17.33;;;10.27;;
8574;SDS011;4325;42.520;27.448;2023-02-08T00:11:20;15.63;;;9.37;;
8574;SDS011;4325;42.520;27.448;2023-02-08T00:13:47;16.80;;;10.10;;
8574;SDS011;4325;42.520;27.448;2023-02-08T00:16:15;15.10;;;8.83;;
8574;SDS011;4325;42.520;27.448;2023-02-08T00:18:42;17.93;;;10.80;;
8574;SDS011;4325;42.520;27.448;2023-02-08T00:21:10;18.97;;;10.03;;
8574;SDS011;4325;42.520;27.448;2023-02-08T00:23:38;17.50;;;9.80;;
8574;SDS011;4325;42.520;27.448;2023-02-08T00:26:05;14.10;;;9.03;;
8574;SDS011;4325;42.520;27.448;2023-02-08T00:28:33;17.17;;;9.70;;
8574;SDS011;4325;42.520;27.448;2023-02-08T00:30:59;13.27;;;8.53;;
8574;SDS011;4325;42.520;27.448;2023-02-08T00:33:28;17.33;;;9.33;;
8574;SDS011;4325;42.520;27.448;2023-02-08T00:35:57;17.40;;;8.70;;
8574;SDS011;4325;42.520;27.448;2023-02-08T00:38:25;15.93;;;9.30;;
8574;SDS011;4325;42.520;27.448;2023-02-08T00:40:51;15.07;;;9.50;;
8574;SDS011;4325;42.520;27.448;2023-02-08T00:43:18;16.67;;;9.37;;
8574;SDS011;4325;42.520;27.448;2023-02-08T00:45:45;13.40;;;8.90;;
8574;SDS011;4325;42.520;27.448;2023-02-08T00:48:12;16.03;;;9.40;;
8574;SDS011;4325;42.520;27.448;2023-02-08T00:50:40;14.60;;;9.23;;
8574;SDS011;4325;42.520;27.448;2023-02-08T00:53:07;14.93;;;9.47;;
8574;SDS011;4325;42.520;27.448;2023-02-08T00:55:34;14.03;;;9.23;;
8574;SDS011;4325;42.520;27.448;2023-02-08T00:58:01;14.20;;;9.17;;
8574;SDS011;4325;42.520;27.448;2023-02-08T01:00:28;13.37;;;8.30;;
8574;SDS011;4325;42.520;27.448;2023-02-08T01:02:55;15.97;;;8.93;;
8574;SDS011;4325;42.520;27.448;2023-02-08T01:05:21;13.33;;;8.50;;
8574;SDS011;4325;42.520;27.448;2023-02-08T01:07:50;15.10;;;9.60;;
8574;SDS011;4325;42.520;27.448;2023-02-08T01:10:16;14.13;;;9.10;;
8574;SDS011;4325;42.520;27.448;2023-02-08T01:12:43;13.80;;;8.73;;
8574;SDS011;4325;42.520;27.448;2023-02-08T01:15:10;14.73;;;9.37;;
8574;SDS011;4325;42.520;27.448;2023-02-08T01:17:37;14.53;;;9.20;;
8574;SDS011;4325;42.520;27.448;2023-02-08T01:20:04;15.57;;;9.73;;
8574;SDS011;4325;42.520;27.448;2023-02-08T01:22:31;13.27;;;8.87;;
8574;SDS011;4325;42.520;27.448;2023-02-08T01:25:00;14.73;;;9.27;;
8574;SDS011;4325;42.520;27.448;2023-02-08T01:27:27;15.17;;;9.20;;
8574;SDS011;4325;42.520;27.448;2023-02-08T01:29:53;13.77;;;9.17;;
8574;SDS011;4325;42.520;27.448;2023-02-08T01:32:20;14.10;;;8.63;;
8574;SDS011;4325;42.520;27.448;2023-02-08T01:34:47;17.30;;;9.50;;
8574;SDS011;4325;42.520;27.448;2023-02-08T01:37:14;14.37;;;8.97;;
8574;SDS011;4325;42.520;27.448;2023-02-08T01:39:41;16.27;;;9.80;;
8574;SDS011;4325;42.520;27.448;2023-02-08T01:42:10;14.17;;;8.83;;
8574;SDS011;4325;42.520;27.448;2023-02-08T01:47:52;16.00;;;9.50;;
8574;SDS011;4325;42.520;27.448;2023-02-08T01:50:24;16.10;;;8.90;;
8574;SDS011;4325;42.520;27.448;2023-02-08T01:52:54;15.77;;;10.20;;
8574;SDS011;4325;42.520;27.448;2023-02-08T01:55:22;13.20;;;8.97;;
8574;SDS011;4325;42.520;27.448;2023-02-08T01:57:56;14.27;;;9.03;;
8574;SDS011;4325;42.520;27.448;2023-02-08T02:00:26;14.70;;;9.60;;
8574;SDS011;4325;42.520;27.448;2023-02-08T02:02:54;14.17;;;9.10;;
8574;SDS011;4325;42.520;27.448;2023-02-08T02:05:24;13.53;;;8.33;;
8574;SDS011;4325;42.520;27.448;2023-02-08T02:07:53;15.20;;;9.73;;
8574;SDS011;4325;42.520;27.448;2023-02-08T02:10:24;13.27;;;9.03;;
8574;SDS011;4325;42.520;27.448;2023-02-08T02:12:53;13.27;;;9.13;;
8574;SDS011;4325;42.520;27.448;2023-02-08T02:15:22;15.63;;;9.27;;
8574;SDS011;4325;42.520;27.448;2023-02-08T02:17:49;16.77;;;9.70;;
8574;SDS011;4325;42.520;27.448;2023-02-08T02:20:17;13.37;;;9.43;;
8574;SDS011;4325;42.520;27.448;2023-02-08T02:23:00;15.27;;;9.87;;
8574;SDS011;4325;42.520;27.448;2023-02-08T02:29:06;17.53;;;10.00;;
8574;SDS011;4325;42.520;27.448;2023-02-08T02:31:50;16.40;;;9.53;;
8574;SDS011;4325;42.520;27.448;2023-02-08T02:34:22;15.50;;;9.73;;
8574;SDS011;4325;42.520;27.448;2023-02-08T02:36:57;15.63;;;9.80;;
8574;SDS011;4325;42.520;27.448;2023-02-08T02:39:33;15.47;;;10.10;;
8574;SDS011;4325;42.520;27.448;2023-02-08T02:42:08;15.33;;;10.20;;
8574;SDS011;4325;42.520;27.448;2023-02-08T02:45:01;12.87;;;8.87;;
8574;SDS011;4325;42.520;27.448;2023-02-08T02:47:36;17.83;;;10.10;;
8574;SDS011;4325;42.520;27.448;2023-02-08T02:50:09;14.13;;;9.33;;
8574;SDS011;4325;42.520;27.448;2023-02-08T02:52:45;15.33;;;9.20;;
8574;SDS011;4325;42.520;27.448;2023-02-08T02:55:17;17.13;;;8.50;;
8574;SDS011;4325;42.520;27.448;2023-02-08T02:57:49;14.87;;;10.03;;
8574;SDS011;4325;42.520;27.448;2023-02-08T03:00:20;15.67;;;9.97;;
8574;SDS011;4325;42.520;27.448;2023-02-08T03:02:50;12.97;;;8.77;;
8574;SDS011;4325;42.520;27.448;2023-02-08T03:05:17;15.67;;;9.57;;
8574;SDS011;4325;42.520;27.448;2023-02-08T03:07:48;16.63;;;10.80;;
8574;SDS011;4325;42.520;27.448;2023-02-08T03:10:31;15.40;;;9.33;;
8574;SDS011;4325;42.520;27.448;2023-02-08T03:13:18;16.43;;;10.27;;
8574;SDS011;4325;42.520;27.448;2023-02-08T03:15:55;17.07;;;11.00;;
8574;SDS011;4325;42.520;27.448;2023-02-08T03:18:32;16.93;;;10.77;;
8574;SDS011;4325;42.520;27.448;2023-02-08T03:21:05;17.23;;;10.77;;
8574;SDS011;4325;42.520;27.448;2023-02-08T03:23:38;19.90;;;11.53;;
8574;SDS011;4325;42.520;27.448;2023-02-08T03:26:14;21.23;;;11.77;;
8574;SDS011;4325;42.520;27.448;2023-02-08T03:28:47;22.23;;;11.40;;
8574;SDS011;4325;42.520;27.448;2023-02-08T03:31:23;17.47;;;9.77;;
8574;SDS011;4325;42.520;27.448;2023-02-08T03:33:59;15.27;;;10.03;;
8574;SDS011;4325;42.520;27.448;2023-02-08T03:36:32;16.57;;;9.47;;
8574;SDS011;4325;42.520;27.448;2023-02-08T03:39:04;13.07;;;8.27;;
8574;SDS011;4325;42.520;27.448;2023-02-08T03:41:37;23.20;;;13.33;;
8574;SDS011;4325;42.520;27.448;2023-02-08T03:44:08;16.43;;;8.80;;
8574;SDS011;4325;42.520;27.448;2023-02-08T03:46:40;15.60;;;9.30;;
8574;SDS011;4325;42.520;27.448;2023-02-08T03:49:13;20.13;;;9.37;;
8574;SDS011;4325;42.520;27.448;2023-02-08T03:51:43;15.17;;;8.90;;
8574;SDS011;4325;42.520;27.448;2023-02-08T03:54:12;15.70;;;8.37;;
8574;SDS011;4325;42.520;27.448;2023-02-08T03:56:43;15.40;;;7.97;;
8574;SDS011;4325;42.520;27.448;2023-02-08T03:59:14;11.57;;;7.07;;
8574;SDS011;4325;42.520;27.448;2023-02-08T04:01:47;10.53;;;6.87;;
8574;SDS011;4325;42.520;27.448;2023-02-08T04:04:20;12.90;;;6.80;;
8574;SDS011;4325;42.520;27.448;2023-02-08T04:06:49;12.17;;;6.07;;
8574;SDS011;4325;42.520;27.448;2023-02-08T04:09:16;10.27;;;6.30;;
8574;SDS011;4325;42.520;27.448;2023-02-08T04:11:43;10.70;;;5.27;;
8574;SDS011;4325;42.520;27.448;2023-02-08T04:14:10;12.03;;;6.77;;
8574;SDS011;4325;42.520;27.448;2023-02-08T04:16:37;8.67;;;6.20;;
8574;SDS011;4325;42.520;27.448;2023-02-08T04:19:04;9.70;;;6.37;;
8574;SDS011;4325;42.520;27.448;2023-02-08T04:21:32;9.90;;;6.13;;
8574;SDS011;4325;42.520;27.448;2023-02-08T04:23:59;13.10;;;7.27;;
8574;SDS011;4325;42.520;27.448;2023-02-08T04:26:26;10.67;;;7.27;;
8574;SDS011;4325;42.520;27.448;2023-02-08T04:28:53;11.57;;;7.03;;
8574;SDS011;4325;42.520;27.448;2023-02-08T04:31:19;12.97;;;7.67;;
8574;SDS011;4325;42.520;27.448;2023-02-08T04:33:46;11.93;;;7.60;;
8574;SDS011;4325;42.520;27.448;2023-02-08T04:36:13;10.97;;;7.60;;
8574;SDS011;4325;42.520;27.448;2023-02-08T04:38:41;12.60;;;7.13;;
8574;SDS011;4325;42.520;27.448;2023-02-08T04:41:08;13.60;;;7.17;;
8574;SDS011;4325;42.520;27.448;2023-02-08T04:43:35;11.07;;;6.77;;
8574;SDS011;4325;42.520;27.448;2023-02-08T04:46:02;12.03;;;7.27;;
8574;SDS011;4325;42.520;27.448;2023-02-08T04:48:29;11.50;;;7.03;;
8574;SDS011;4325;42.520;27.448;2023-02-08T04:50:56;14.03;;;8.13;;
8574;SDS011;4325;42.520;27.448;2023-02-08T04:53:24;11.13;;;7.07;;
8574;SDS011;4325;42.520;27.448;2023-02-08T04:55:53;12.67;;;7.70;;
8574;SDS011;4325;42.520;27.448;2023-02-08T04:58:20;12.43;;;7.80;;
8574;SDS011;4325;42.520;27.448;2023-02-08T05:00:47;11.57;;;7.30;;
8574;SDS011;4325;42.520;27.448;2023-02-08T05:03:14;14.73;;;7.50;;
8574;SDS011;4325;42.520;27.448;2023-02-08T05:05:41;13.30;;;6.47;;
8574;SDS011;4325;42.520;27.448;2023-02-08T05:08:07;11.10;;;7.10;;
8574;SDS011;4325;42.520;27.448;2023-02-08T05:10:34;13.70;;;6.97;;
8574;SDS011;4325;42.520;27.448;2023-02-08T05:13:03;12.07;;;6.93;;
8574;SDS011;4325;42.520;27.448;2023-02-08T05:15:29;12.33;;;7.33;;
8574;SDS011;4325;42.520;27.448;2023-02-08T05:17:56;10.17;;;6.43;;
8574;SDS011;4325;42.520;27.448;2023-02-08T05:20:23;11.43;;;7.00;;
8574;SDS011;4325;42.520;27.448;2023-02-08T05:22:50;12.33;;;7.37;;
8574;SDS011;4325;42.520;27.448;2023-02-08T05:25:17;11.97;;;6.70;;
8574;SDS011;4325;42.520;27.448;2023-02-08T05:27:44;13.87;;;7.23;;
8574;SDS011;4325;42.520;27.448;2023-02-08T05:30:12;13.00;;;7.33;;
8574;SDS011;4325;42.520;27.448;2023-02-08T05:32:39;12.93;;;7.63;;
8574;SDS011;4325;42.520;27.448;2023-02-08T05:35:06;11.53;;;7.27;;
8574;SDS011;4325;42.520;27.448;2023-02-08T05:37:33;13.57;;;8.37;;
8574;SDS011;4325;42.520;27.448;2023-02-08T05:40:01;10.93;;;7.17;;
8574;SDS011;4325;42.520;27.448;2023-02-08T05:42:28;11.03;;;6.73;;
8574;SDS011;4325;42.520;27.448;2023-02-08T05:44:54;12.37;;;7.13;;
8574;SDS011;4325;42.520;27.448;2023-02-08T05:47:23;14.60;;;7.50;;
8574;SDS011;4325;42.520;27.448;2023-02-08T05:49:50;10.80;;;6.20;;
8574;SDS011;4325;42.520;27.448;2023-02-08T05:52:17;10.73;;;6.20;;
8574;SDS011;4325;42.520;27.448;2023-02-08T05:54:43;11.87;;;7.00;;
8574;SDS011;4325;42.520;27.448;2023-02-08T05:57:10;11.70;;;6.90;;
8574;SDS011;4325;42.520;27.448;2023-02-08T05:59:37;11.20;;;5.93;;
8574;SDS011;4325;42.520;27.448;2023-02-08T06:02:04;9.10;;;6.13;;
8574;SDS011;4325;42.520;27.448;2023-02-08T06:07:00;11.00;;;6.13;;
8574;SDS011;4325;42.520;27.448;2023-02-08T06:09:27;10.40;;;6.00;;
8574;SDS011;4325;42.520;27.448;2023-02-08T06:11:54;10.87;;;6.10;;
8574;SDS011;4325;42.520;27.448;2023-02-08T06:14:21;12.90;;;6.13;;
8574;SDS011;4325;42.520;27.448;2023-02-08T06:16:48;10.87;;;6.23;;
8574;SDS011;4325;42.520;27.448;2023-02-08T06:19:15;12.97;;;7.30;;
8574;SDS011;4325;42.520;27.448;2023-02-08T06:21:43;16.20;;;6.87;;
8574;SDS011;4325;42.520;27.448;2023-02-08T06:24:10;13.33;;;7.70;;
8574;SDS011;4325;42.520;27.448;2023-02-08T06:26:38;13.00;;;6.97;;
8574;SDS011;4325;42.520;27.448;2023-02-08T06:29:05;13.17;;;7.37;;
8574;SDS011;4325;42.520;27.448;2023-02-08T06:31:32;11.60;;;7.10;;
8574;SDS011;4325;42.520;27.448;2023-02-08T06:33:59;11.27;;;6.63;;
8574;SDS011;4325;42.520;27.448;2023-02-08T06:36:25;10.63;;;6.73;;
8574;SDS011;4325;42.520;27.448;2023-02-08T06:38:54;16.73;;;7.23;;
8574;SDS011;4325;42.520;27.448;2023-02-08T06:41:21;12.03;;;6.93;;
8574;SDS011;4325;42.520;27.448;2023-02-08T06:43:47;13.77;;;7.60;;
8574;SDS011;4325;42.520;27.448;2023-02-08T06:46:14;13.93;;;7.43;;
8574;SDS011;4325;42.520;27.448;2023-02-08T06:48:41;12.47;;;7.43;;
8574;SDS011;4325;42.520;27.448;2023-02-08T06:51:08;12.97;;;8.33;;
8574;SDS011;4325;42.520;27.448;2023-02-08T06:53:35;13.60;;;7.97;;
8574;SDS011;4325;42.520;27.448;2023-02-08T06:56:03;13.47;;;8.13;;
8574;SDS011;4325;42.520;27.448;2023-02-08T06:58:30;13.67;;;7.60;;
8574;SDS011;4325;42.520;27.448;2023-02-08T07:00:57;13.57;;;7.10;;
8574;SDS011;4325;42.520;27.448;2023-02-08T07:03:24;12.47;;;7.60;;
8574;SDS011;4325;42.520;27.448;2023-02-08T07:05:51;11.23;;;7.23;;
8574;SDS011;4325;42.520;27.448;2023-02-08T07:08:18;9.37;;;6.57;;
8574;SDS011;4325;42.520;27.448;2023-02-08T07:10:44;19.43;;;6.10;;
8574;SDS011;4325;42.520;27.448;2023-02-08T07:13:14;10.87;;;6.93;;
8574;SDS011;4325;42.520;27.448;2023-02-08T07:15:40;15.03;;;6.37;;
8574;SDS011;4325;42.520;27.448;2023-02-08T07:18:07;9.67;;;6.93;;
8574;SDS011;4325;42.520;27.448;2023-02-08T07:20:34;10.37;;;7.03;;
8574;SDS011;4325;42.520;27.448;2023-02-08T07:23:01;11.40;;;7.13;;
8574;SDS011;4325;42.520;27.448;2023-02-08T07:25:28;14.73;;;7.23;;
8574;SDS011;4325;42.520;27.448;2023-02-08T07:27:54;9.30;;;6.60;;
8574;SDS011;4325;42.520;27.448;2023-02-08T07:30:23;12.97;;;6.50;;
8574;SDS011;4325;42.520;27.448;2023-02-08T07:32:50;10.37;;;6.70;;
8574;SDS011;4325;42.520;27.448;2023-02-08T07:35:16;12.10;;;6.27;;
8574;SDS011;4325;42.520;27.448;2023-02-08T07:37:43;11.77;;;6.47;;
8574;SDS011;4325;42.520;27.448;2023-02-08T07:40:10;9.03;;;6.23;;
8574;SDS011;4325;42.520;27.448;2023-02-08T07:42:37;9.83;;;6.53;;
8574;SDS011;4325;42.520;27.448;2023-02-08T07:45:04;13.70;;;7.13;;
8574;SDS011;4325;42.520;27.448;2023-02-08T07:47:33;15.47;;;7.23;;
8574;SDS011;4325;42.520;27.448;2023-02-08T07:49:59;9.33;;;6.97;;
8574;SDS011;4325;42.520;27.448;2023-02-08T07:52:26;11.37;;;7.50;;
8574;SDS011;4325;42.520;27.448;2023-02-08T07:54:54;10.57;;;7.50;;
8574;SDS011;4325;42.520;27.448;2023-02-08T07:57:21;11.30;;;7.50;;
8574;SDS011;4325;42.520;27.448;2023-02-08T07:59:48;12.63;;;7.90;;
8574;SDS011;4325;42.520;27.448;2023-02-08T08:02:15;11.07;;;7.37;;
8574;SDS011;4325;42.520;27.448;2023-02-08T08:04:44;12.40;;;7.07;;
8574;SDS011;4325;42.520;27.448;2023-02-08T08:07:11;9.47;;;7.67;;
8574;SDS011;4325;42.520;27.448;2023-02-08T08:09:38;10.30;;;7.70;;
8574;SDS011;4325;42.520;27.448;2023-02-08T08:12:04;8.73;;;7.50;;
8574;SDS011;4325;42.520;27.448;2023-02-08T08:14:32;10.00;;;8.17;;
8574;SDS011;4325;42.520;27.448;2023-02-08T08:16:58;8.83;;;7.93;;
8574;SDS011;4325;42.520;27.448;2023-02-08T08:19:25;10.63;;;7.83;;
8574;SDS011;4325;42.520;27.448;2023-02-08T08:21:53;7.93;;;7.13;;
8574;SDS011;4325;42.520;27.448;2023-02-08T08:24:20;8.60;;;7.33;;
8574;SDS011;4325;42.520;27.448;2023-02-08T08:26:47;12.73;;;6.87;;
8574;SDS011;4325;42.520;27.448;2023-02-08T08:29:14;10.27;;;7.60;;
8574;SDS011;4325;42.520;27.448;2023-02-08T08:31:41;7.93;;;6.93;;
8574;SDS011;4325;42.520;27.448;2023-02-08T08:34:09;15.57;;;8.10;;
8574;SDS011;4325;42.520;27.448;2023-02-08T08:36:36;12.90;;;7.67;;
8574;SDS011;4325;42.520;27.448;2023-02-08T08:39:04;8.90;;;7.90;;
8574;SDS011;4325;42.520;27.448;2023-02-08T08:41:31;9.00;;;7.87;;
8574;SDS011;4325;42.520;27.448;2023-02-08T08:43:59;9.83;;;8.07;;
8574;SDS011;4325;42.520;27.448;2023-02-08T08:46:26;7.93;;;7.13;;
8574;SDS011;4325;42.520;27.448;2023-02-08T08:48:53;11.23;;;8.80;;
8574;SDS011;4325;42.520;27.448;2023-02-08T08:51:20;9.40;;;8.23;;
8574;SDS011;4325;42.520;27.448;2023-02-08T08:53:46;12.10;;;8.53;;
8574;SDS011;4325;42.520;27.448;2023-02-08T08:56:15;8.37;;;7.10;;
8574;SDS011;4325;42.520;27.448;2023-02-08T08:58:42;12.50;;;7.50;;
8574;SDS011;4325;42.520;27.448;2023-02-08T09:01:08;9.17;;;7.23;;
8574;SDS011;4325;42.520;27.448;2023-02-08T09:03:37;15.40;;;7.63;;
8574;SDS011;4325;42.520;27.448;2023-02-08T09:06:04;10.07;;;7.37;;
8574;SDS011;4325;42.520;27.448;2023-02-08T09:08:31;8.57;;;7.13;;
8574;SDS011;4325;42.520;27.448;2023-02-08T09:11:02;12.33;;;6.87;;
8574;SDS011;4325;42.520;27.448;2023-02-08T09:13:31;9.63;;;7.23;;
8574;SDS011;4325;42.520;27.448;2023-02-08T09:15:58;11.20;;;7.10;;
8574;SDS011;4325;42.520;27.448;2023-02-08T09:18:29;13.57;;;7.10;;
8574;SDS011;4325;42.520;27.448;2023-02-08T09:20:56;7.97;;;6.70;;
8574;SDS011;4325;42.520;27.448;2023-02-08T09:23:23;11.73;;;7.63;;
8574;SDS011;4325;42.520;27.448;2023-02-08T09:25:49;8.43;;;7.63;;
8574;SDS011;4325;42.520;27.448;2023-02-08T09:28:16;11.47;;;7.60;;
8574;SDS011;4325;42.520;27.448;2023-02-08T09:30:44;13.10;;;7.63;;
8574;SDS011;4325;42.520;27.448;2023-02-08T09:33:11;8.17;;;7.37;;
8574;SDS011;4325;42.520;27.448;2023-02-08T09:35:38;8.27;;;7.03;;
8574;SDS011;4325;42.520;27.448;2023-02-08T09:38:05;11.97;;;7.40;;
8574;SDS011;4325;42.520;27.448;2023-02-08T09:40:35;8.57;;;7.67;;
8574;SDS011;4325;42.520;27.448;2023-02-08T09:43:08;7.67;;;6.97;;
8574;SDS011;4325;42.520;27.448;2023-02-08T09:45:39;7.90;;;6.90;;
8574;SDS011;4325;42.520;27.448;2023-02-08T09:48:15;7.83;;;7.13;;
8574;SDS011;4325;42.520;27.448;2023-02-08T09:50:48;10.10;;;7.93;;
8574;SDS011;4325;42.520;27.448;2023-02-08T09:53:19;9.30;;;7.37;;
8574;SDS011;4325;42.520;27.448;2023-02-08T09:55:50;8.70;;;7.40;;
8574;SDS011;4325;42.520;27.448;2023-02-08T09:58:23;10.17;;;9.10;;
8574;SDS011;4325;42.520;27.448;2023-02-08T10:00:55;9.37;;;7.70;;
8574;SDS011;4325;42.520;27.448;2023-02-08T10:03:28;9.40;;;8.50;;
8574;SDS011;4325;42.520;27.448;2023-02-08T10:06:00;8.23;;;7.43;;
8574;SDS011;4325;42.520;27.448;2023-02-08T10:08:28;7.87;;;7.17;;
8574;SDS011;4325;42.520;27.448;2023-02-08T10:10:58;8.27;;;7.37;;
8574;SDS011;4325;42.520;27.448;2023-02-08T10:13:43;7.73;;;7.03;;
8574;SDS011;4325;42.520;27.448;2023-02-08T10:16:27;9.37;;;7.13;;
8574;SDS011;4325;42.520;27.448;2023-02-08T10:19:08;8.27;;;7.13;;
8574;SDS011;4325;42.520;27.448;2023-02-08T10:21:49;7.93;;;7.23;;
8574;SDS011;4325;42.520;27.448;2023-02-08T10:24:28;8.60;;;6.90;;
8574;SDS011;4325;42.520;27.448;2023-02-08T10:27:03;7.43;;;6.73;;
8574;SDS011;4325;42.520;27.448;2023-02-08T10:29:44;9.87;;;7.03;;
8574;SDS011;4325;42.520;27.448;2023-02-08T10:32:41;7.40;;;6.40;;
8574;SDS011;4325;42.520;27.448;2023-02-08T10:35:13;7.40;;;6.10;;
8574;SDS011;4325;42.520;27.448;2023-02-08T10:37:47;8.93;;;6.43;;
8574;SDS011;4325;42.520;27.448;2023-02-08T10:40:18;7.87;;;6.87;;
8574;SDS011;4325;42.520;27.448;2023-02-08T10:42:55;6.50;;;5.90;;
8574;SDS011;4325;42.520;27.448;2023-02-08T10:45:29;7.97;;;7.17;;
8574;SDS011;4325;42.520;27.448;2023-02-08T10:48:03;8.53;;;7.03;;
8574;SDS011;4325;42.520;27.448;2023-02-08T10:50:35;7.53;;;6.73;;
8574;SDS011;4325;42.520;27.448;2023-02-08T10:53:04;7.60;;;6.17;;
8574;SDS011;4325;42.520;27.448;2023-02-08T10:55:35;11.57;;;5.73;;
8574;SDS011;4325;42.520;27.448;2023-02-08T10:58:08;7.53;;;5.57;;
8574;SDS011;4325;42.520;27.448;2023-02-08T11:00:41;10.97;;;6.37;;
8574;SDS011;4325;42.520;27.448;2023-02-08T11:03:13;7.97;;;5.97;;
8574;SDS011;4325;42.520;27.448;2023-02-08T11:05:42;7.90;;;6.37;;
8574;SDS011;4325;42.520;27.448;2023-02-08T11:08:11;11.00;;;5.97;;
8574;SDS011;4325;42.520;27.448;2023-02-08T11:10:40;11.23;;;6.13;;
8574;SDS011;4325;42.520;27.448;2023-02-08T11:13:14;8.47;;;6.53;;
8574;SDS011;4325;42.520;27.448;2023-02-08T11:15:44;9.87;;;5.80;;
8574;SDS011;4325;42.520;27.448;2023-02-08T11:18:18;8.83;;;6.70;;
8574;SDS011;4325;42.520;27.448;2023-02-08T11:20:50;9.23;;;6.40;;
8574;SDS011;4325;42.520;27.448;2023-02-08T11:23:22;14.07;;;5.93;;
8574;SDS011;4325;42.520;27.448;2023-02-08T11:25:51;12.63;;;6.83;;
8574;SDS011;4325;42.520;27.448;2023-02-08T11:28:24;8.83;;;6.37;;
8574;SDS011;4325;42.520;27.448;2023-02-08T11:30:56;15.13;;;7.00;;
8574;SDS011;4325;42.520;27.448;2023-02-08T11:33:27;9.03;;;6.57;;
8574;SDS011;4325;42.520;27.448;2023-02-08T11:35:56;10.17;;;6.73;;
8574;SDS011;4325;42.520;27.448;2023-02-08T11:38:26;10.70;;;6.87;;
8574;SDS011;4325;42.520;27.448;2023-02-08T11:40:55;8.93;;;6.33;;
8574;SDS011;4325;42.520;27.448;2023-02-08T11:43:25;9.37;;;6.47;;
8574;SDS011;4325;42.520;27.448;2023-02-08T11:45:55;10.17;;;6.90;;
8574;SDS011;4325;42.520;27.448;2023-02-08T11:48:24;11.07;;;7.37;;
8574;SDS011;4325;42.520;27.448;2023-02-08T11:50:57;11.60;;;6.90;;
8574;SDS011;4325;42.520;27.448;2023-02-08T11:53:27;11.03;;;6.17;;
8574;SDS011;4325;42.520;27.448;2023-02-08T11:56:02;8.00;;;6.10;;
8574;SDS011;4325;42.520;27.448;2023-02-08T11:58:31;10.83;;;6.40;;
8574;SDS011;4325;42.520;27.448;2023-02-08T12:00:59;11.97;;;6.87;;
8574;SDS011;4325;42.520;27.448;2023-02-08T12:03:28;11.77;;;6.10;;
8574;SDS011;4325;42.520;27.448;2023-02-08T12:06:07;16.30;;;6.70;;
8574;SDS011;4325;42.520;27.448;2023-02-08T12:08:48;8.77;;;6.33;;
8574;SDS011;4325;42.520;27.448;2023-02-08T12:11:27;9.67;;;6.03;;
8574;SDS011;4325;42.520;27.448;2023-02-08T12:16:57;10.67;;;7.03;;
8574;SDS011;4325;42.520;27.448;2023-02-08T12:19:51;14.47;;;6.80;;
8574;SDS011;4325;42.520;27.448;2023-02-08T12:22:31;8.53;;;6.40;;
8574;SDS011;4325;42.520;27.448;2023-02-08T12:25:13;9.07;;;6.43;;
8574;SDS011;4325;42.520;27.448;2023-02-08T12:27:51;9.50;;;6.23;;
8574;SDS011;4325;42.520;27.448;2023-02-08T12:30:24;10.53;;;7.10;;
8574;SDS011;4325;42.520;27.448;2023-02-08T12:39:00;10.07;;;6.70;;
8574;SDS011;4325;42.520;27.448;2023-02-08T12:41:54;18.10;;;6.40;;
8574;SDS011;4325;42.520;27.448;2023-02-08T12:44:35;11.30;;;6.93;;
8574;SDS011;4325;42.520;27.448;2023-02-08T12:47:16;10.53;;;6.90;;
8574;SDS011;4325;42.520;27.448;2023-02-08T12:49:56;9.47;;;6.60;;
8574;SDS011;4325;42.520;27.448;2023-02-08T12:52:36;11.87;;;7.07;;
8574;SDS011;4325;42.520;27.448;2023-02-08T12:55:14;9.77;;;6.33;;
8574;SDS011;4325;42.520;27.448;2023-02-08T12:57:48;9.53;;;6.20;;
8574;SDS011;4325;42.520;27.448;2023-02-08T13:00:18;9.00;;;6.30;;
8574;SDS011;4325;42.520;27.448;2023-02-08T13:02:50;10.50;;;6.03;;
8574;SDS011;4325;42.520;27.448;2023-02-08T13:05:25;8.57;;;6.03;;
8574;SDS011;4325;42.520;27.448;2023-02-08T13:08:00;10.80;;;6.80;;
8574;SDS011;4325;42.520;27.448;2023-02-08T13:10:32;10.87;;;6.43;;
8574;SDS011;4325;42.520;27.448;2023-02-08T13:13:05;10.03;;;6.17;;
8574;SDS011;4325;42.520;27.448;2023-02-08T13:15:40;11.17;;;6.93;;
8574;SDS011;4325;42.520;27.448;2023-02-08T13:18:11;8.63;;;5.87;;
8574;SDS011;4325;42.520;27.448;2023-02-08T13:20:43;9.33;;;6.33;;
8574;SDS011;4325;42.520;27.448;2023-02-08T13:23:17;12.57;;;7.20;;
8574;SDS011;4325;42.520;27.448;2023-02-08T13:25:51;12.13;;;7.10;;
8574;SDS011;4325;42.520;27.448;2023-02-08T13:28:21;10.37;;;6.37;;
8574;SDS011;4325;42.520;27.448;2023-02-08T13:30:53;12.67;;;7.57;;
8574;SDS011;4325;42.520;27.448;2023-02-08T13:33:25;11.97;;;6.87;;
8574;SDS011;4325;42.520;27.448;2023-02-08T13:35:57;10.70;;;7.23;;
8574;SDS011;4325;42.520;27.448;2023-02-08T13:38:27;11.83;;;7.03;;
8574;SDS011;4325;42.520;27.448;2023-02-08T13:41:00;10.63;;;6.90;;
8574;SDS011;4325;42.520;27.448;2023-02-08T13:43:32;14.10;;;7.87;;
8574;SDS011;4325;42.520;27.448;2023-02-08T13:46:02;11.33;;;7.10;;
8574;SDS011;4325;42.520;27.448;2023-02-08T13:48:39;10.37;;;7.13;;
8574;SDS011;4325;42.520;27.448;2023-02-08T13:51:15;14.70;;;6.63;;
8574;SDS011;4325;42.520;27.448;2023-02-08T13:54:21;11.53;;;6.83;;
8574;SDS011;4325;42.520;27.448;2023-02-08T13:56:48;10.60;;;7.03;;
8574;SDS011;4325;42.520;27.448;2023-02-08T13:59:27;13.17;;;7.50;;
8574;SDS011;4325;42.520;27.448;2023-02-08T14:04:52;11.53;;;6.80;;
8574;SDS011;4325;42.520;27.448;2023-02-08T14:07:28;12.33;;;7.43;;
8574;SDS011;4325;42.520;27.448;2023-02-08T14:12:57;11.43;;;6.83;;
8574;SDS011;4325;42.520;27.448;2023-02-08T14:15:32;11.77;;;7.80;;
8574;SDS011;4325;42.520;27.448;2023-02-08T14:18:04;17.57;;;8.60;;
8574;SDS011;4325;42.520;27.448;2023-02-08T14:20:54;17.87;;;8.87;;
8574;SDS011;4325;42.520;27.448;2023-02-08T14:23:27;15.30;;;8.17;;
8574;SDS011;4325;42.520;27.448;2023-02-08T14:25:58;14.20;;;8.50;;
8574;SDS011;4325;42.520;27.448;2023-02-08T14:28:32;12.73;;;7.83;;
8574;SDS011;4325;42.520;27.448;2023-02-08T14:31:04;15.27;;;9.10;;
8574;SDS011;4325;42.520;27.448;2023-02-08T14:33:33;16.30;;;8.50;;
8574;SDS011;4325;42.520;27.448;2023-02-08T14:36:03;13.53;;;8.67;;
8574;SDS011;4325;42.520;27.448;2023-02-08T14:47:50;18.73;;;9.50;;
8574;SDS011;4325;42.520;27.448;2023-02-08T14:50:22;22.47;;;9.70;;
8574;SDS011;4325;42.520;27.448;2023-02-08T14:52:55;17.00;;;9.13;;
8574;SDS011;4325;42.520;27.448;2023-02-08T14:55:29;13.93;;;8.93;;
8574;SDS011;4325;42.520;27.448;2023-02-08T14:58:00;13.20;;;8.63;;
8574;SDS011;4325;42.520;27.448;2023-02-08T15:00:33;14.27;;;8.70;;
8574;SDS011;4325;42.520;27.448;2023-02-08T15:03:03;15.33;;;9.57;;
8574;SDS011;4325;42.520;27.448;2023-02-08T15:05:38;14.33;;;9.23;;
8574;SDS011;4325;42.520;27.448;2023-02-08T15:08:11;15.23;;;8.43;;
8574;SDS011;4325;42.520;27.448;2023-02-08T15:10:39;16.33;;;9.40;;
8574;SDS011;4325;42.520;27.448;2023-02-08T15:13:16;16.30;;;9.57;;
8574;SDS011;4325;42.520;27.448;2023-02-08T15:15:45;16.60;;;9.20;;
8574;SDS011;4325;42.520;27.448;2023-02-08T15:18:17;16.40;;;8.83;;
8574;SDS011;4325;42.520;27.448;2023-02-08T15:20:54;25.33;;;9.57;;
8574;SDS011;4325;42.520;27.448;2023-02-08T15:23:27;15.30;;;9.27;;
8574;SDS011;4325;42.520;27.448;2023-02-08T15:25:55;16.60;;;9.93;;
8574;SDS011;4325;42.520;27.448;2023-02-08T15:28:26;17.40;;;10.17;;
8574;SDS011;4325;42.520;27.448;2023-02-08T15:30:55;15.23;;;9.40;;
8574;SDS011;4325;42.520;27.448;2023-02-08T15:33:24;21.23;;;10.07;;
8574;SDS011;4325;42.520;27.448;2023-02-08T15:35:55;23.33;;;9.90;;
8574;SDS011;4325;42.520;27.448;2023-02-08T15:38:24;16.93;;;9.27;;
8574;SDS011;4325;42.520;27.448;2023-02-08T15:41:01;17.30;;;9.93;;
8574;SDS011;4325;42.520;27.448;2023-02-08T15:43:31;18.53;;;9.80;;